Alamogordo, New Mexico
Current Conditions -  °F | °C
As of 9:15 AM on Saturday 20 Dec 2014 (Local Time) from KALM Reporting Station
Clear Clear  
Wind Chill: -4°   Ceiling: Unl
Heat Index:   Visibility: 10mi
Dew Point: -2°   Wind: 7mph
Humidity: 87%   Direction: 160°SSE
Pressure: 30.17"   Gusts: NA
Location:  32.9°N, 105.96°W
Report Text: KALM 201615Z AUTO 16006KT 10SM CLR 00/M02 A3017 RMK AO2
Loading
Personal Weather Stations






























Interactive Weather Map New forecast layout! Learn more

10-Day Weather Forecast

Advertisements
Track Severe Weather on mobile